Time,TemperatureF,DewpointF,PressureIn,WindDirection,WindDirectionDegrees,WindSpeedMPH,WindSpeedGustMPH,Humidity,HourlyPrecipIn,Conditions,Clouds,dailyrainin,SoftwareType,DateUTC
2013-05-18 00:01:00,47.0,41.5,30.20,NNW,348,0.0,0.0,81,0.00,,,0.00,Wunderground v.1.15,2013-05-18 04:01:00,
2013-05-18 00:03:00,46.8,41.3,30.20,NNW,348,0.0,0.0,81,0.00,,,0.00,Wunderground v.1.15,2013-05-18 04:03:00,
2013-05-18 00:08:00,46.5,41.6,30.20,NNW,348,0.0,0.0,83,0.00,,,0.00,Wunderground v.1.15,2013-05-18 04:08:00,
2013-05-18 00:09:00,46.4,41.5,30.20,NNW,348,0.0,0.0,83,0.00,,,0.00,Wunderground v.1.15,2013-05-18 04:09:00,
2013-05-18 00:14:00,46.4,41.5,30.20,NNW,348,0.0,0.0,83,0.00,,,0.00,Wunderground v.1.15,2013-05-18 04:14:00,
2013-05-18 00:19:00,46.7,41.8,30.20,NNW,348,0.0,0.0,83,0.00,,,0.00,Wunderground v.1.15,2013-05-18 04:19:00,
2013-05-18 00:24:00,47.0,42.1,30.20,NNW,348,0.0,0.0,83,0.00,,,0.00,Wunderground v.1.15,2013-05-18 04:24:00,
2013-05-18 00:31:00,46.8,41.6,30.20,NNW,348,0.0,0.0,82,0.00,,,0.00,Wunderground v.1.15,2013-05-18 04:31:00,
2013-05-18 00:36:00,47.0,41.8,30.20,NNW,348,0.0,0.0,82,0.00,,,0.00,Wunderground v.1.15,2013-05-18 04:36:00,
2013-05-18 00:43:00,47.0,42.1,30.20,NNW,348,0.0,0.0,83,0.00,,,0.00,Wunderground v.1.15,2013-05-18 04:43:00,
2013-05-18 00:48:00,47.0,41.8,30.20,NNW,348,0.0,0.0,82,0.00,,,0.00,Wunderground v.1.15,2013-05-18 04:48:00,
2013-05-18 00:53:00,46.8,41.6,30.20,NNW,348,0.0,0.0,82,0.00,,,0.00,Wunderground v.1.15,2013-05-18 04:53:00,
2013-05-18 00:58:00,46.7,41.5,30.20,NNW,348,0.0,0.0,82,0.00,,,0.00,Wunderground v.1.15,2013-05-18 04:58:00,
2013-05-18 01:04:00,46.5,41.9,30.20,NNW,348,0.0,0.0,84,0.00,,,0.00,Wunderground v.1.15,2013-05-18 05:04:00,
2013-05-18 01:09:00,46.8,41.9,30.20,NNW,348,0.0,0.0,83,0.00,,,0.00,Wunderground v.1.15,2013-05-18 05:09:00,
2013-05-18 01:14:00,47.0,41.8,30.20,NNW,348,0.0,0.0,82,0.00,,,0.00,Wunderground v.1.15,2013-05-18 05:14:00,
2013-05-18 01:19:00,46.8,41.6,30.20,NNW,348,0.0,0.0,82,0.00,,,0.00,Wunderground v.1.15,2013-05-18 05:19:00,
2013-05-18 01:26:00,46.7,41.2,30.20,NNW,348,0.0,0.0,81,0.00,,,0.00,Wunderground v.1.15,2013-05-18 05:26:00,
2013-05-18 01:31:00,46.5,41.3,30.20,NNW,348,0.0,0.0,82,0.00,,,0.00,Wunderground v.1.15,2013-05-18 05:31:00,
2013-05-18 01:38:00,46.0,40.8,30.20,NNW,348,0.0,0.0,82,0.00,,,0.00,Wunderground v.1.15,2013-05-18 05:38:00,
2013-05-18 01:43:00,45.5,40.9,30.21,NNW,348,0.0,0.0,84,0.00,,,0.00,Wunderground v.1.15,2013-05-18 05:43:00,
2013-05-18 01:49:00,45.1,40.9,30.21,NNW,348,0.0,0.0,85,0.00,,,0.00,Wunderground v.1.15,2013-05-18 05:49:00,
2013-05-18 01:54:00,44.6,41.0,30.20,NNW,348,0.0,0.0,87,0.00,,,0.00,Wunderground v.1.15,2013-05-18 05:54:00,
2013-05-18 01:59:00,44.5,40.9,30.20,NNW,348,0.0,0.0,87,0.00,,,0.00,Wunderground v.1.15,2013-05-18 05:59:00,
2013-05-18 02:04:00,44.1,40.2,30.20,NNW,348,0.0,0.0,86,0.00,,,0.00,Wunderground v.1.15,2013-05-18 06:04:00,
2013-05-18 02:10:00,43.6,40.3,30.20,NNW,348,0.0,0.0,88,0.00,,,0.00,Wunderground v.1.15,2013-05-18 06:10:00,
2013-05-18 02:15:00,43.3,40.0,30.20,NNW,348,0.0,0.0,88,0.00,,,0.00,Wunderground v.1.15,2013-05-18 06:15:00,
2013-05-18 02:20:00,43.1,40.1,30.20,NNW,348,0.0,0.0,89,0.00,,,0.00,Wunderground v.1.15,2013-05-18 06:20:00,
2013-05-18 02:25:00,42.6,39.6,30.20,NNW,348,0.0,0.0,89,0.00,,,0.00,Wunderground v.1.15,2013-05-18 06:25:00,
2013-05-18 02:30:00,42.5,39.8,30.20,NNW,348,0.0,0.0,90,0.00,,,0.00,Wunderground v.1.15,2013-05-18 06:30:00,
2013-05-18 02:35:00,42.3,39.9,30.20,NNW,348,0.0,0.0,91,0.00,,,0.00,Wunderground v.1.15,2013-05-18 06:35:00,
2013-05-18 02:40:00,42.3,39.9,30.20,NNW,348,0.0,0.0,91,0.00,,,0.00,Wunderground v.1.15,2013-05-18 06:40:00,
2013-05-18 02:45:00,42.2,39.8,30.20,NNW,348,0.0,0.0,91,0.00,,,0.00,Wunderground v.1.15,2013-05-18 06:45:00,
2013-05-18 02:50:00,42.2,39.8,30.20,NNW,348,0.0,0.0,91,0.00,,,0.00,Wunderground v.1.15,2013-05-18 06:50:00,
2013-05-18 02:55:00,42.1,39.7,30.21,NNW,348,0.0,0.0,91,0.00,,,0.00,Wunderground v.1.15,2013-05-18 06:55:00,
2013-05-18 03:01:00,41.8,39.4,30.21,NNW,348,0.0,0.0,91,0.00,,,0.00,Wunderground v.1.15,2013-05-18 07:01:00,
2013-05-18 03:06:00,41.5,39.1,30.21,NNW,348,0.0,0.0,91,0.00,,,0.00,Wunderground v.1.15,2013-05-18 07:06:00,
2013-05-18 03:11:00,41.3,38.9,30.21,NNW,348,0.0,0.0,91,0.00,,,0.00,Wunderground v.1.15,2013-05-18 07:11:00,
2013-05-18 03:17:00,41.1,39.0,30.21,NNW,348,0.0,0.0,92,0.00,,,0.00,Wunderground v.1.15,2013-05-18 07:17:00,
2013-05-18 03:22:00,40.8,38.7,30.21,NNW,348,0.0,0.0,92,0.00,,,0.00,Wunderground v.1.15,2013-05-18 07:22:00,
2013-05-18 03:27:00,40.9,38.8,30.22,NNW,348,0.0,0.0,92,0.00,,,0.00,Wunderground v.1.15,2013-05-18 07:27:00,
2013-05-18 03:32:00,41.2,39.1,30.22,NNW,348,0.0,0.0,92,0.00,,,0.00,Wunderground v.1.15,2013-05-18 07:32:00,
2013-05-18 03:37:00,41.1,39.0,30.22,NNW,348,0.0,0.0,92,0.00,,,0.00,Wunderground v.1.15,2013-05-18 07:37:00,
2013-05-18 03:42:00,40.8,38.7,30.22,NNW,348,0.0,0.0,92,0.00,,,0.00,Wunderground v.1.15,2013-05-18 07:42:00,
2013-05-18 03:48:00,40.6,38.5,30.22,NNW,348,0.0,0.0,92,0.00,,,0.00,Wunderground v.1.15,2013-05-18 07:48:00,
2013-05-18 03:53:00,40.6,38.5,30.22,NNW,348,0.0,0.0,92,0.00,,,0.00,Wunderground v.1.15,2013-05-18 07:53:00,
2013-05-18 03:58:00,40.3,38.2,30.22,NNW,348,0.0,0.0,92,0.00,,,0.00,Wunderground v.1.15,2013-05-18 07:58:00,
2013-05-18 04:03:00,40.3,38.2,30.22,NNW,348,0.0,0.0,92,0.00,,,0.00,Wunderground v.1.15,2013-05-18 08:03:00,
2013-05-18 04:08:00,40.1,38.0,30.22,NNW,348,0.0,0.0,92,0.00,,,0.00,Wunderground v.1.15,2013-05-18 08:08:00,
2013-05-18 04:13:00,39.8,37.9,30.23,NNW,348,0.0,0.0,93,0.00,,,0.00,Wunderground v.1.15,2013-05-18 08:13:00,
2013-05-18 04:18:00,39.9,38.0,30.23,NNW,348,0.0,0.0,93,0.00,,,0.00,Wunderground v.1.15,2013-05-18 08:18:00,
2013-05-18 04:23:00,39.8,37.9,30.23,NNW,348,0.0,0.0,93,0.00,,,0.00,Wunderground v.1.15,2013-05-18 08:23:00,
2013-05-18 04:28:00,39.6,37.7,30.23,NNW,348,0.0,0.0,93,0.00,,,0.00,Wunderground v.1.15,2013-05-18 08:28:00,
2013-05-18 04:33:00,39.5,37.6,30.23,NNW,348,0.0,0.0,93,0.00,,,0.00,Wunderground v.1.15,2013-05-18 08:33:00,
2013-05-18 04:39:00,39.5,37.6,30.23,NNW,348,0.0,0.0,93,0.00,,,0.00,Wunderground v.1.15,2013-05-18 08:39:00,
2013-05-18 04:44:00,39.2,37.3,30.24,NNW,348,0.0,0.0,93,0.00,,,0.00,Wunderground v.1.15,2013-05-18 08:44:00,
2013-05-18 04:49:00,39.2,37.6,30.24,NNW,348,0.0,0.0,94,0.00,,,0.00,Wunderground v.1.15,2013-05-18 08:49:00,
2013-05-18 04:54:00,38.9,37.0,30.24,NNW,348,0.0,0.0,93,0.00,,,0.00,Wunderground v.1.15,2013-05-18 08:54:00,
2013-05-18 04:59:00,38.5,36.7,30.24,NNW,348,0.0,0.0,93,0.00,,,0.00,Wunderground v.1.15,2013-05-18 08:59:00,
2013-05-18 05:04:00,38.2,36.4,30.24,NNW,348,0.0,0.0,93,0.00,,,0.00,Wunderground v.1.15,2013-05-18 09:04:00,
2013-05-18 05:09:00,37.9,36.1,30.25,NNW,348,0.0,0.0,93,0.00,,,0.00,Wunderground v.1.15,2013-05-18 09:09:00,
2013-05-18 05:14:00,37.9,36.3,30.25,NNW,348,0.0,0.0,94,0.00,,,0.00,Wunderground v.1.15,2013-05-18 09:14:00,
2013-05-18 05:20:00,37.9,36.3,30.25,NNW,348,0.0,0.0,94,0.00,,,0.00,Wunderground v.1.15,2013-05-18 09:20:00,
2013-05-18 05:25:00,37.8,36.2,30.25,NNW,348,0.0,0.0,94,0.00,,,0.00,Wunderground v.1.15,2013-05-18 09:25:00,
2013-05-18 05:30:00,37.6,35.8,30.25,NNW,348,0.0,0.0,93,0.00,,,0.00,Wunderground v.1.15,2013-05-18 09:30:00,
2013-05-18 05:35:00,37.8,36.0,30.25,NNW,348,0.0,0.0,93,0.00,,,0.00,Wunderground v.1.15,2013-05-18 09:35:00,
2013-05-18 05:40:00,37.6,36.0,30.26,NNW,348,0.0,0.0,94,0.00,,,0.00,Wunderground v.1.15,2013-05-18 09:40:00,
2013-05-18 05:45:00,37.6,36.0,30.26,NNW,348,0.0,0.0,94,0.00,,,0.00,Wunderground v.1.15,2013-05-18 09:45:00,
2013-05-18 05:50:00,37.6,36.0,30.26,NNW,348,0.0,0.0,94,0.00,,,0.00,Wunderground v.1.15,2013-05-18 09:50:00,
2013-05-18 05:55:00,37.8,36.2,30.26,NNW,348,0.0,0.0,94,0.00,,,0.00,Wunderground v.1.15,2013-05-18 09:55:00,
2013-05-18 06:00:00,37.8,36.2,30.26,NNW,348,0.0,0.0,94,0.00,,,0.00,Wunderground v.1.15,2013-05-18 10:00:00,
2013-05-18 06:05:00,38.0,36.7,30.26,NNW,348,0.0,0.0,95,0.00,,,0.00,Wunderground v.1.15,2013-05-18 10:05:00,
2013-05-18 06:10:00,38.0,36.4,30.27,NNW,348,0.0,0.0,94,0.00,,,0.00,Wunderground v.1.15,2013-05-18 10:10:00,
2013-05-18 06:15:00,38.2,36.6,30.27,NNW,348,0.0,0.0,94,0.00,,,0.00,Wunderground v.1.15,2013-05-18 10:15:00,
2013-05-18 06:20:00,38.5,36.9,30.27,NNW,348,0.0,0.0,94,0.00,,,0.00,Wunderground v.1.15,2013-05-18 10:20:00,
2013-05-18 06:26:00,38.6,37.3,30.27,NNW,348,0.0,0.0,95,0.00,,,0.00,Wunderground v.1.15,2013-05-18 10:26:00,
2013-05-18 06:31:00,38.9,37.6,30.27,NNW,348,0.0,0.0,95,0.00,,,0.00,Wunderground v.1.15,2013-05-18 10:31:00,
2013-05-18 06:36:00,39.2,37.9,30.27,NNW,348,0.0,0.0,95,0.00,,,0.00,Wunderground v.1.15,2013-05-18 10:36:00,
2013-05-18 06:41:00,39.5,37.9,30.27,NNW,348,0.0,0.0,94,0.00,,,0.00,Wunderground v.1.15,2013-05-18 10:41:00,
2013-05-18 06:47:00,39.8,38.2,30.27,NNW,348,0.0,0.0,94,0.00,,,0.00,Wunderground v.1.15,2013-05-18 10:47:00,
2013-05-18 06:52:00,40.1,38.5,30.27,NNW,348,0.0,0.0,94,0.00,,,0.00,Wunderground v.1.15,2013-05-18 10:52:00,
2013-05-18 06:57:00,40.6,39.0,30.28,NNW,348,0.0,0.0,94,0.00,,,0.00,Wunderground v.1.15,2013-05-18 10:57:00,
2013-05-18 07:02:00,40.9,39.3,30.28,NNW,348,0.0,0.0,94,0.00,,,0.00,Wunderground v.1.15,2013-05-18 11:02:00,
2013-05-18 07:07:00,41.5,39.9,30.28,NNW,348,0.0,0.0,94,0.00,,,0.00,Wunderground v.1.15,2013-05-18 11:07:00,
2013-05-18 07:13:00,41.9,40.0,30.28,NNW,348,0.0,0.0,93,0.00,,,0.00,Wunderground v.1.15,2013-05-18 11:13:00,
2013-05-18 07:18:00,42.3,40.1,30.28,NNW,348,0.0,0.0,92,0.00,,,0.00,Wunderground v.1.15,2013-05-18 11:18:00,
2013-05-18 07:23:00,42.6,40.4,30.28,NNW,348,0.0,0.0,92,0.00,,,0.00,Wunderground v.1.15,2013-05-18 11:23:00,
2013-05-18 07:28:00,43.2,41.0,30.29,NNW,348,0.0,0.0,92,0.00,,,0.00,Wunderground v.1.15,2013-05-18 11:28:00,
2013-05-18 07:33:00,43.6,41.4,30.29,NNW,348,0.0,0.0,92,0.00,,,0.00,Wunderground v.1.15,2013-05-18 11:33:00,
2013-05-18 07:38:00,44.3,41.3,30.29,North,350,0.0,0.0,89,0.00,,,0.00,Wunderground v.1.15,2013-05-18 11:38:00,
2013-05-18 07:44:00,44.8,41.5,30.29,North,350,0.0,0.0,88,0.00,,,0.00,Wunderground v.1.15,2013-05-18 11:44:00,
2013-05-18 07:49:00,45.2,41.6,30.29,North,350,0.0,0.0,87,0.00,,,0.00,Wunderground v.1.15,2013-05-18 11:49:00,
2013-05-18 07:54:00,45.8,42.2,30.29,North,350,0.0,0.0,87,0.00,,,0.00,Wunderground v.1.15,2013-05-18 11:54:00,
2013-05-18 07:59:00,46.7,42.1,30.30,North,350,0.0,0.0,84,0.00,,,0.00,Wunderground v.1.15,2013-05-18 11:59:00,
2013-05-18 08:04:00,47.1,41.9,30.30,North,350,0.0,0.0,82,0.00,,,0.00,Wunderground v.1.15,2013-05-18 12:04:00,
2013-05-18 08:09:00,47.6,42.4,30.30,North,350,0.0,0.0,82,0.00,,,0.00,Wunderground v.1.15,2013-05-18 12:09:00,
2013-05-18 08:14:00,48.0,42.4,30.30,North,350,0.0,0.0,81,0.00,,,0.00,Wunderground v.1.15,2013-05-18 12:14:00,
2013-05-18 08:20:00,48.5,42.9,30.30,North,350,0.0,0.0,81,0.00,,,0.00,Wunderground v.1.15,2013-05-18 12:20:00,
2013-05-18 08:25:00,49.1,43.5,30.30,North,350,0.0,0.0,81,0.00,,,0.00,Wunderground v.1.15,2013-05-18 12:25:00,
2013-05-18 08:30:00,49.5,43.3,30.30,North,350,0.0,0.0,79,0.00,,,0.00,Wunderground v.1.15,2013-05-18 12:30:00,
2013-05-18 08:35:00,50.1,42.8,30.30,North,350,0.0,0.0,76,0.00,,,0.00,Wunderground v.1.15,2013-05-18 12:35:00,
2013-05-18 08:40:00,51.1,42.4,30.30,North,350,0.0,0.0,72,0.00,,,0.00,Wunderground v.1.15,2013-05-18 12:40:00,
2013-05-18 08:45:00,51.6,43.2,30.30,North,350,0.0,0.0,73,0.00,,,0.00,Wunderground v.1.15,2013-05-18 12:45:00,
2013-05-18 08:50:00,52.5,43.7,30.30,North,350,0.0,0.0,72,0.00,,,0.00,Wunderground v.1.15,2013-05-18 12:50:00,
2013-05-18 08:55:00,53.3,41.8,30.30,NW,317,0.0,0.0,65,0.00,,,0.00,Wunderground v.1.15,2013-05-18 12:55:00,
2013-05-18 09:01:00,54.4,42.9,30.30,NW,318,0.0,0.0,65,0.00,,,0.00,Wunderground v.1.15,2013-05-18 13:01:00,
2013-05-18 09:06:00,54.8,44.0,30.30,NW,318,0.0,0.0,67,0.00,,,0.00,Wunderground v.1.15,2013-05-18 13:06:00,
2013-05-18 09:12:00,55.4,43.0,30.29,NW,318,0.0,0.0,63,0.00,,,0.00,Wunderground v.1.15,2013-05-18 13:12:00,
2013-05-18 09:17:00,55.7,43.7,30.29,NW,318,0.0,0.0,64,0.00,,,0.00,Wunderground v.1.15,2013-05-18 13:17:00,
2013-05-18 09:22:00,56.5,44.5,30.29,NW,307,0.0,0.0,64,0.00,,,0.00,Wunderground v.1.15,2013-05-18 13:22:00,
2013-05-18 09:27:00,57.0,44.9,30.29,NW,307,0.0,0.0,64,0.00,,,0.00,Wunderground v.1.15,2013-05-18 13:27:00,
2013-05-18 09:32:00,57.5,43.7,30.29,NW,307,0.0,0.0,60,0.00,,,0.00,Wunderground v.1.15,2013-05-18 13:32:00,
2013-05-18 09:38:00,57.8,43.1,30.29,NW,307,0.0,0.0,58,0.00,,,0.00,Wunderground v.1.15,2013-05-18 13:38:00,
2013-05-18 09:43:00,58.6,42.9,30.29,NW,307,0.0,0.0,56,0.00,,,0.00,Wunderground v.1.15,2013-05-18 13:43:00,
2013-05-18 09:48:00,59.2,42.1,30.29,NW,307,0.0,0.0,53,0.00,,,0.00,Wunderground v.1.15,2013-05-18 13:48:00,
2013-05-18 09:53:00,59.8,41.6,30.29,NW,307,0.0,0.0,51,0.00,,,0.00,Wunderground v.1.15,2013-05-18 13:53:00,
2013-05-18 09:58:00,60.4,43.7,30.28,NW,307,0.0,0.0,54,0.00,,,0.00,Wunderground v.1.15,2013-05-18 13:58:00,
2013-05-18 10:04:00,60.9,40.5,30.28,NW,307,0.0,0.0,47,0.00,,,0.00,Wunderground v.1.15,2013-05-18 14:04:00,
2013-05-18 10:09:00,61.5,42.2,30.28,NW,307,0.0,0.0,49,0.00,,,0.00,Wunderground v.1.15,2013-05-18 14:09:00,
2013-05-18 10:14:00,62.0,42.6,30.28,NW,307,0.0,0.0,49,0.00,,,0.00,Wunderground v.1.15,2013-05-18 14:14:00,
2013-05-18 10:19:00,62.3,37.7,30.28,ESE,121,0.0,0.0,40,0.00,,,0.00,Wunderground v.1.15,2013-05-18 14:19:00,
2013-05-18 10:24:00,62.6,37.9,30.28,ESE,114,0.0,1.0,40,0.00,,,0.00,Wunderground v.1.15,2013-05-18 14:24:00,
2013-05-18 10:29:00,63.5,39.4,30.28,SSW,201,0.0,0.0,41,0.00,,,0.00,Wunderground v.1.15,2013-05-18 14:29:00,
2013-05-18 10:34:00,63.5,38.7,30.28,SE,141,0.0,0.0,40,0.00,,,0.00,Wunderground v.1.15,2013-05-18 14:34:00,
2013-05-18 10:39:00,64.3,41.3,30.27,SE,142,0.0,0.0,43,0.00,,,0.00,Wunderground v.1.15,2013-05-18 14:39:00,
2013-05-18 10:44:00,65.2,40.3,30.27,SSE,165,0.0,0.0,40,0.00,,,0.00,Wunderground v.1.15,2013-05-18 14:44:00,
2013-05-18 10:49:00,65.5,39.9,30.27,SSW,201,0.0,0.0,39,0.00,,,0.00,Wunderground v.1.15,2013-05-18 14:49:00,
2013-05-18 10:54:00,66.6,40.9,30.27,East,93,0.0,0.0,39,0.00,,,0.00,Wunderground v.1.15,2013-05-18 14:54:00,
2013-05-18 11:00:00,67.6,41.7,30.27,East,91,0.0,0.0,39,0.00,,,0.00,Wunderground v.1.15,2013-05-18 15:00:00,
2013-05-18 11:05:00,68.8,40.0,30.27,East,91,0.0,0.0,35,0.00,,,0.00,Wunderground v.1.15,2013-05-18 15:05:00,
2013-05-18 11:10:00,68.9,40.1,30.27,East,91,0.0,0.0,35,0.00,,,0.00,Wunderground v.1.15,2013-05-18 15:10:00,
2013-05-18 11:15:00,69.9,42.4,30.27,West,275,0.0,0.0,37,0.00,,,0.00,Wunderground v.1.15,2013-05-18 15:15:00,
2013-05-18 11:20:00,69.4,34.9,30.27,ENE,76,0.0,0.0,28,0.00,,,0.00,Wunderground v.1.15,2013-05-18 15:20:00,
2013-05-18 11:25:00,70.1,37.2,30.26,NW,313,0.0,0.0,30,0.00,,,0.00,Wunderground v.1.15,2013-05-18 15:25:00,
2013-05-18 11:31:00,70.6,35.9,30.26,NE,42,0.0,1.0,28,0.00,,,0.00,Wunderground v.1.15,2013-05-18 15:31:00,
2013-05-18 11:36:00,71.5,36.7,30.26,NE,42,0.0,0.0,28,0.00,,,0.00,Wunderground v.1.15,2013-05-18 15:36:00,
2013-05-18 11:41:00,71.3,36.5,30.25,NE,53,0.0,2.0,28,0.00,,,0.00,Wunderground v.1.15,2013-05-18 15:41:00,
2013-05-18 11:46:00,69.1,33.7,30.25,SW,221,0.0,0.0,27,0.00,,,0.00,Wunderground v.1.15,2013-05-18 15:46:00,
2013-05-18 11:52:00,68.6,36.7,30.25,SW,214,0.0,0.0,31,0.00,,,0.00,Wunderground v.1.15,2013-05-18 15:52:00,
2013-05-18 11:57:00,71.3,40.7,30.25,SSW,197,0.0,0.0,33,0.00,,,0.00,Wunderground v.1.15,2013-05-18 15:57:00,
2013-05-18 12:02:00,70.9,33.3,30.25,SE,139,0.0,1.0,25,0.00,,,0.00,Wunderground v.1.15,2013-05-18 16:02:00,
2013-05-18 12:07:00,70.8,38.7,30.25,ENE,78,0.0,0.0,31,0.00,,,0.00,Wunderground v.1.15,2013-05-18 16:07:00,
2013-05-18 12:12:00,72.5,35.6,30.24,ESE,115,1.0,1.0,26,0.00,,,0.00,Wunderground v.1.15,2013-05-18 16:12:00,
2013-05-18 12:17:00,71.8,32.0,30.24,SE,146,0.0,2.0,23,0.00,,,0.00,Wunderground v.1.15,2013-05-18 16:17:00,
2013-05-18 12:22:00,69.6,33.2,30.24,WNW,294,1.0,2.0,26,0.00,,,0.00,Wunderground v.1.15,2013-05-18 16:22:00,
2013-05-18 12:27:00,68.4,37.4,30.24,NNW,348,0.0,1.0,32,0.00,,,0.00,Wunderground v.1.15,2013-05-18 16:27:00,
2013-05-18 12:32:00,68.9,37.8,30.24,West,266,0.0,1.0,32,0.00,,,0.00,Wunderground v.1.15,2013-05-18 16:32:00,
2013-05-18 12:37:00,71.5,36.7,30.24,SSW,204,0.0,1.0,28,0.00,,,0.00,Wunderground v.1.15,2013-05-18 16:37:00,
2013-05-18 12:43:00,71.8,33.0,30.23,SSW,194,0.0,1.0,24,0.00,,,0.00,Wunderground v.1.15,2013-05-18 16:43:00,
2013-05-18 12:48:00,73.0,33.0,30.23,NW,313,0.0,1.0,23,0.00,,,0.00,Wunderground v.1.15,2013-05-18 16:48:00,
2013-05-18 12:53:00,72.8,33.9,30.23,SSW,197,0.0,1.0,24,0.00,,,0.00,Wunderground v.1.15,2013-05-18 16:53:00,
2013-05-18 12:58:00,70.8,30.0,30.23,SW,217,0.0,0.0,22,0.00,,,0.00,Wunderground v.1.15,2013-05-18 16:58:00,
2013-05-18 13:03:00,70.9,30.1,30.23,South,184,0.0,0.0,22,0.00,,,0.00,Wunderground v.1.15,2013-05-18 17:03:00,
2013-05-18 13:09:00,72.5,31.5,30.23,South,183,0.0,0.0,22,0.00,,,0.00,Wunderground v.1.15,2013-05-18 17:09:00,
2013-05-18 13:14:00,73.7,33.6,30.23,NNW,335,0.0,0.0,23,0.00,,,0.00,Wunderground v.1.15,2013-05-18 17:14:00,
2013-05-18 13:19:00,74.4,34.2,30.23,North,350,1.0,1.0,23,0.00,,,0.00,Wunderground v.1.15,2013-05-18 17:19:00,
2013-05-18 13:24:00,74.7,34.4,30.23,NW,320,0.0,1.0,23,0.00,,,0.00,Wunderground v.1.15,2013-05-18 17:24:00,
2013-05-18 13:29:00,74.9,34.6,30.22,North,11,0.0,2.0,23,0.00,,,0.00,Wunderground v.1.15,2013-05-18 17:29:00,
2013-05-18 13:34:00,75.3,32.6,30.22,NNE,19,0.0,0.0,21,0.00,,,0.00,Wunderground v.1.15,2013-05-18 17:34:00,
2013-05-18 13:39:00,73.7,31.3,30.22,NNE,23,0.0,1.0,21,0.00,,,0.00,Wunderground v.1.15,2013-05-18 17:39:00,
2013-05-18 13:44:00,72.3,33.5,30.22,NNE,22,0.0,0.0,24,0.00,,,0.00,Wunderground v.1.15,2013-05-18 17:44:00,
2013-05-18 13:49:00,72.3,32.4,30.22,NNW,335,1.0,1.0,23,0.00,,,0.00,Wunderground v.1.15,2013-05-18 17:49:00,
2013-05-18 13:54:00,70.8,31.1,30.22,NNW,334,0.0,0.0,23,0.00,,,0.00,Wunderground v.1.15,2013-05-18 17:54:00,
2013-05-18 14:00:00,70.8,32.2,30.22,North,355,0.0,1.0,24,0.00,,,0.00,Wunderground v.1.15,2013-05-18 18:00:00,
2013-05-18 14:05:00,70.9,32.3,30.22,North,357,0.0,0.0,24,0.00,,,0.00,Wunderground v.1.15,2013-05-18 18:05:00,
2013-05-18 14:10:00,70.8,35.1,30.21,North,355,0.0,0.0,27,0.00,,,0.00,Wunderground v.1.15,2013-05-18 18:10:00,
2013-05-18 14:15:00,69.8,34.3,30.21,North,355,0.0,0.0,27,0.00,,,0.00,Wunderground v.1.15,2013-05-18 18:15:00,
2013-05-18 14:20:00,69.4,33.9,30.21,North,355,0.0,0.0,27,0.00,,,0.00,Wunderground v.1.15,2013-05-18 18:20:00,
2013-05-18 14:25:00,69.1,34.6,30.21,North,355,0.0,0.0,28,0.00,,,0.00,Wunderground v.1.15,2013-05-18 18:25:00,
2013-05-18 14:31:00,70.4,35.7,30.21,North,355,0.0,0.0,28,0.00,,,0.00,Wunderground v.1.15,2013-05-18 18:31:00,
2013-05-18 14:36:00,71.8,33.0,30.21,North,355,0.0,0.0,24,0.00,,,0.00,Wunderground v.1.15,2013-05-18 18:36:00,
2013-05-18 14:41:00,72.8,33.9,30.20,North,351,0.0,0.0,24,0.00,,,0.00,Wunderground v.1.15,2013-05-18 18:41:00,
2013-05-18 14:46:00,72.1,32.2,30.20,North,352,0.0,1.0,23,0.00,,,0.00,Wunderground v.1.15,2013-05-18 18:46:00,
2013-05-18 14:52:00,70.9,29.0,30.20,North,352,0.0,1.0,21,0.00,,,0.00,Wunderground v.1.15,2013-05-18 18:52:00,
2013-05-18 14:57:00,70.1,33.6,30.20,ENE,62,0.0,0.0,26,0.00,,,0.00,Wunderground v.1.15,2013-05-18 18:57:00,
2013-05-18 15:02:00,69.9,32.5,30.20,ENE,63,0.0,0.0,25,0.00,,,0.00,Wunderground v.1.15,2013-05-18 19:02:00,
2013-05-18 15:07:00,70.4,32.9,30.20,ENE,63,0.0,0.0,25,0.00,,,0.00,Wunderground v.1.15,2013-05-18 19:07:00,
2013-05-18 15:12:00,70.1,36.3,30.20,ENE,63,0.0,0.0,29,0.00,,,0.00,Wunderground v.1.15,2013-05-18 19:12:00,
2013-05-18 15:18:00,71.3,35.6,30.20,ENE,60,0.0,0.0,27,0.00,,,0.00,Wunderground v.1.15,2013-05-18 19:18:00,
2013-05-18 15:23:00,71.3,31.6,30.20,ENE,60,0.0,0.0,23,0.00,,,0.00,Wunderground v.1.15,2013-05-18 19:23:00,
2013-05-18 15:28:00,72.0,34.2,30.20,WNW,292,0.0,0.0,25,0.00,,,0.00,Wunderground v.1.15,2013-05-18 19:28:00,
2013-05-18 15:33:00,73.5,34.5,30.20,SSW,211,1.0,2.0,24,0.00,,,0.00,Wunderground v.1.15,2013-05-18 19:33:00,
2013-05-18 15:39:00,73.0,34.1,30.20,SSW,206,0.0,1.0,24,0.00,,,0.00,Wunderground v.1.15,2013-05-18 19:39:00,
2013-05-18 15:44:00,72.1,31.1,30.20,SSW,206,0.0,1.0,22,0.00,,,0.00,Wunderground v.1.15,2013-05-18 19:44:00,
2013-05-18 15:49:00,72.0,32.1,30.20,SSW,207,0.0,0.0,23,0.00,,,0.00,Wunderground v.1.15,2013-05-18 19:49:00,
2013-05-18 15:54:00,70.8,30.0,30.20,SSW,207,0.0,0.0,22,0.00,,,0.00,Wunderground v.1.15,2013-05-18 19:54:00,
2013-05-18 15:59:00,70.3,29.6,30.19,SSW,206,0.0,0.0,22,0.00,,,0.00,Wunderground v.1.15,2013-05-18 19:59:00,
2013-05-18 16:04:00,70.1,29.5,30.19,SSW,206,0.0,0.0,22,0.00,,,0.00,Wunderground v.1.15,2013-05-18 20:04:00,
2013-05-18 16:10:00,70.9,36.1,30.19,SSW,207,0.0,0.0,28,0.00,,,0.00,Wunderground v.1.15,2013-05-18 20:10:00,
2013-05-18 16:15:00,72.1,37.2,30.19,North,354,0.0,1.0,28,0.00,,,0.00,Wunderground v.1.15,2013-05-18 20:15:00,
2013-05-18 16:20:00,71.8,34.1,30.19,North,354,0.0,1.0,25,0.00,,,0.00,Wunderground v.1.15,2013-05-18 20:20:00,
2013-05-18 16:25:00,72.3,31.3,30.19,North,355,0.0,0.0,22,0.00,,,0.00,Wunderground v.1.15,2013-05-18 20:25:00,
2013-05-18 16:30:00,72.5,31.5,30.19,North,357,0.0,0.0,22,0.00,,,0.00,Wunderground v.1.15,2013-05-18 20:30:00,
2013-05-18 16:35:00,72.0,32.1,30.19,North,357,0.0,0.0,23,0.00,,,0.00,Wunderground v.1.15,2013-05-18 20:35:00,
2013-05-18 16:40:00,72.7,33.8,30.18,NE,40,1.0,6.0,24,0.00,,,0.00,Wunderground v.1.15,2013-05-18 20:40:00,
2013-05-18 16:45:00,72.8,35.9,30.18,SW,221,2.0,7.0,26,0.00,,,0.00,Wunderground v.1.15,2013-05-18 20:45:00,
2013-05-18 16:51:00,71.8,36.0,30.18,SW,221,0.0,7.0,27,0.00,,,0.00,Wunderground v.1.15,2013-05-18 20:51:00,
2013-05-18 16:56:00,71.8,36.0,30.19,SW,221,0.0,1.0,27,0.00,,,0.00,Wunderground v.1.15,2013-05-18 20:56:00,
2013-05-18 17:01:00,71.8,36.0,30.19,SW,221,0.0,1.0,27,0.00,,,0.00,Wunderground v.1.15,2013-05-18 21:01:00,
2013-05-18 17:06:00,71.5,34.8,30.19,NE,52,1.0,2.0,26,0.00,,,0.00,Wunderground v.1.15,2013-05-18 21:06:00,
2013-05-18 17:12:00,70.4,39.1,30.19,North,9,4.0,4.0,32,0.00,,,0.00,Wunderground v.1.15,2013-05-18 21:12:00,
2013-05-18 17:17:00,69.8,43.7,30.19,NNE,16,0.0,2.0,39,0.00,,,0.00,Wunderground v.1.15,2013-05-18 21:17:00,
2013-05-18 17:22:00,69.3,43.9,30.19,NNE,16,0.0,8.0,40,0.00,,,0.00,Wunderground v.1.15,2013-05-18 21:22:00,
2013-05-18 17:27:00,69.3,44.6,30.19,NNE,29,1.0,2.0,41,0.00,,,0.00,Wunderground v.1.15,2013-05-18 21:27:00,
2013-05-18 17:32:00,68.9,44.2,30.19,NNE,29,0.0,2.0,41,0.00,,,0.00,Wunderground v.1.15,2013-05-18 21:32:00,
2013-05-18 17:37:00,68.3,43.7,30.19,NNE,29,0.0,1.0,41,0.00,,,0.00,Wunderground v.1.15,2013-05-18 21:37:00,
2013-05-18 17:42:00,68.3,43.7,30.19,NNE,30,0.0,1.0,41,0.00,,,0.00,Wunderground v.1.15,2013-05-18 21:42:00,
2013-05-18 17:48:00,68.3,44.9,30.19,NNE,30,0.0,1.0,43,0.00,,,0.00,Wunderground v.1.15,2013-05-18 21:48:00,
2013-05-18 17:53:00,68.4,45.6,30.19,NNE,22,0.0,1.0,44,0.00,,,0.00,Wunderground v.1.15,2013-05-18 21:53:00,
2013-05-18 17:58:00,68.6,45.8,30.19,NNE,32,0.0,2.0,44,0.00,,,0.00,Wunderground v.1.15,2013-05-18 21:58:00,
2013-05-18 18:03:00,68.4,45.6,30.19,NNE,22,1.0,2.0,44,0.00,,,0.00,Wunderground v.1.15,2013-05-18 22:03:00,
2013-05-18 18:09:00,67.9,45.2,30.19,NNE,15,0.0,4.0,44,0.00,,,0.00,Wunderground v.1.15,2013-05-18 22:09:00,
2013-05-18 18:14:00,67.4,45.3,30.20,NNE,15,0.0,4.0,45,0.00,,,0.00,Wunderground v.1.15,2013-05-18 22:14:00,
2013-05-18 18:19:00,67.1,46.2,30.20,NNE,15,0.0,0.0,47,0.00,,,0.00,Wunderground v.1.15,2013-05-18 22:19:00,
2013-05-18 18:24:00,66.6,45.7,30.20,NNE,14,0.0,0.0,47,0.00,,,0.00,Wunderground v.1.15,2013-05-18 22:24:00,
2013-05-18 18:29:00,66.4,45.5,30.20,NNE,14,0.0,0.0,47,0.00,,,0.00,Wunderground v.1.15,2013-05-18 22:29:00,
2013-05-18 18:34:00,66.3,46.0,30.20,NNE,14,0.0,0.0,48,0.00,,,0.00,Wunderground v.1.15,2013-05-18 22:34:00,
2013-05-18 18:39:00,65.8,46.1,30.20,North,2,0.0,1.0,49,0.00,,,0.00,Wunderground v.1.15,2013-05-18 22:39:00,
2013-05-18 18:44:00,65.5,45.8,30.21,North,2,0.0,0.0,49,0.00,,,0.00,Wunderground v.1.15,2013-05-18 22:44:00,
2013-05-18 18:50:00,65.2,46.1,30.21,North,2,0.0,0.0,50,0.00,,,0.00,Wunderground v.1.15,2013-05-18 22:50:00,
2013-05-18 18:55:00,64.8,45.7,30.21,North,4,0.0,0.0,50,0.00,,,0.00,Wunderground v.1.15,2013-05-18 22:55:00,
2013-05-18 19:00:00,64.7,46.7,30.21,North,4,0.0,0.0,52,0.00,,,0.00,Wunderground v.1.15,2013-05-18 23:00:00,
2013-05-18 19:06:00,64.5,46.0,30.21,North,4,0.0,0.0,51,0.00,,,0.00,Wunderground v.1.15,2013-05-18 23:06:00,
2013-05-18 19:11:00,64.2,46.2,30.22,North,4,0.0,0.0,52,0.00,,,0.00,Wunderground v.1.15,2013-05-18 23:11:00,
2013-05-18 19:16:00,64.0,46.5,30.22,North,4,0.0,0.0,53,0.00,,,0.00,Wunderground v.1.15,2013-05-18 23:16:00,
2013-05-18 19:21:00,63.9,47.4,30.22,South,173,0.0,0.0,55,0.00,,,0.00,Wunderground v.1.15,2013-05-18 23:21:00,
2013-05-18 19:27:00,63.4,47.4,30.22,South,173,0.0,0.0,56,0.00,,,0.00,Wunderground v.1.15,2013-05-18 23:27:00,
2013-05-18 19:32:00,63.1,46.7,30.22,South,173,0.0,0.0,55,0.00,,,0.00,Wunderground v.1.15,2013-05-18 23:32:00,
2013-05-18 19:37:00,62.6,46.7,30.22,ENE,77,0.0,0.0,56,0.00,,,0.00,Wunderground v.1.15,2013-05-18 23:37:00,
2013-05-18 19:42:00,62.1,46.7,30.23,ENE,57,0.0,0.0,57,0.00,,,0.00,Wunderground v.1.15,2013-05-18 23:42:00,
2013-05-18 19:47:00,61.6,46.2,30.23,ENE,57,0.0,0.0,57,0.00,,,0.00,Wunderground v.1.15,2013-05-18 23:47:00,
2013-05-18 19:52:00,61.3,46.4,30.23,North,2,0.0,0.0,58,0.00,,,0.00,Wunderground v.1.15,2013-05-18 23:52:00,
2013-05-18 19:57:00,60.9,46.5,30.23,North,2,0.0,0.0,59,0.00,,,0.00,Wunderground v.1.15,2013-05-18 23:57:00,
2013-05-18 20:02:00,60.5,46.1,30.23,North,4,0.0,0.0,59,0.00,,,0.00,Wunderground v.1.15,2013-05-19 00:02:00,
2013-05-18 20:07:00,60.4,46.0,30.23,North,2,0.0,0.0,59,0.00,,,0.00,Wunderground v.1.15,2013-05-19 00:07:00,
2013-05-18 20:12:00,60.1,45.7,30.23,NNE,19,0.0,0.0,59,0.00,,,0.00,Wunderground v.1.15,2013-05-19 00:12:00,
2013-05-18 20:17:00,59.8,45.9,30.23,NNE,19,0.0,0.0,60,0.00,,,0.00,Wunderground v.1.15,2013-05-19 00:17:00,
2013-05-18 20:23:00,59.5,46.0,30.23,NNE,18,0.0,0.0,61,0.00,,,0.00,Wunderground v.1.15,2013-05-19 00:23:00,
2013-05-18 20:28:00,59.2,45.3,30.23,NNE,18,0.0,0.0,60,0.00,,,0.00,Wunderground v.1.15,2013-05-19 00:28:00,
2013-05-18 20:33:00,58.9,46.3,30.23,NNE,19,0.0,0.0,63,0.00,,,0.00,Wunderground v.1.15,2013-05-19 00:33:00,
2013-05-18 20:38:00,58.7,46.1,30.23,NNE,19,0.0,0.0,63,0.00,,,0.00,Wunderground v.1.15,2013-05-19 00:38:00,
2013-05-18 20:43:00,58.3,45.8,30.23,NNE,19,0.0,0.0,63,0.00,,,0.00,Wunderground v.1.15,2013-05-19 00:43:00,
2013-05-18 20:49:00,58.1,46.0,30.23,NNE,19,0.0,0.0,64,0.00,,,0.00,Wunderground v.1.15,2013-05-19 00:49:00,
2013-05-18 20:54:00,57.8,45.7,30.23,NNE,19,0.0,0.0,64,0.00,,,0.00,Wunderground v.1.15,2013-05-19 00:54:00,
2013-05-18 20:59:00,57.6,45.5,30.24,NNE,19,0.0,0.0,64,0.00,,,0.00,Wunderground v.1.15,2013-05-19 00:59:00,
2013-05-18 21:05:00,57.3,45.6,30.24,NNE,19,0.0,0.0,65,0.00,,,0.00,Wunderground v.1.15,2013-05-19 01:05:00,
2013-05-18 21:11:00,56.7,46.3,30.24,NNE,19,0.0,0.0,68,0.00,,,0.00,Wunderground v.1.15,2013-05-19 01:11:00,
2013-05-18 21:16:00,56.2,45.8,30.24,NNE,19,0.0,0.0,68,0.00,,,0.00,Wunderground v.1.15,2013-05-19 01:16:00,
2013-05-18 21:23:00,55.7,45.7,30.24,NNE,19,0.0,0.0,69,0.00,,,0.00,Wunderground v.1.15,2013-05-19 01:23:00,
2013-05-18 21:28:00,55.4,45.4,30.25,NNE,18,0.0,0.0,69,0.00,,,0.00,Wunderground v.1.15,2013-05-19 01:28:00,
2013-05-18 21:33:00,55.3,46.1,30.25,NNE,18,0.0,0.0,71,0.00,,,0.00,Wunderground v.1.15,2013-05-19 01:33:00,
2013-05-18 21:38:00,54.8,45.6,30.25,NNE,18,0.0,0.0,71,0.00,,,0.00,Wunderground v.1.15,2013-05-19 01:38:00,
2013-05-18 21:43:00,54.4,45.2,30.25,NNE,18,0.0,0.0,71,0.00,,,0.00,Wunderground v.1.15,2013-05-19 01:43:00,
2013-05-18 21:48:00,54.5,46.0,30.25,NNE,18,0.0,0.0,73,0.00,,,0.00,Wunderground v.1.15,2013-05-19 01:48:00,
2013-05-18 21:53:00,54.5,46.0,30.25,NNE,18,0.0,0.0,73,0.00,,,0.00,Wunderground v.1.15,2013-05-19 01:53:00,
2013-05-18 21:58:00,54.4,46.3,30.26,NNE,18,0.0,0.0,74,0.00,,,0.00,Wunderground v.1.15,2013-05-19 01:58:00,
2013-05-18 22:04:00,54.2,46.1,30.26,NNE,18,0.0,0.0,74,0.00,,,0.00,Wunderground v.1.15,2013-05-19 02:04:00,
2013-05-18 22:09:00,54.1,46.3,30.26,NNE,18,0.0,0.0,75,0.00,,,0.00,Wunderground v.1.15,2013-05-19 02:09:00,
2013-05-18 22:14:00,53.8,46.4,30.26,NNE,18,0.0,0.0,76,0.00,,,0.00,Wunderground v.1.15,2013-05-19 02:14:00,
2013-05-18 22:19:00,53.3,46.3,30.26,NNE,18,0.0,0.0,77,0.00,,,0.00,Wunderground v.1.15,2013-05-19 02:19:00,
2013-05-18 22:24:00,53.2,46.2,30.26,NNE,18,0.0,0.0,77,0.00,,,0.00,Wunderground v.1.15,2013-05-19 02:24:00,
2013-05-18 22:29:00,52.8,46.1,30.26,NNE,18,0.0,0.0,78,0.00,,,0.00,Wunderground v.1.15,2013-05-19 02:29:00,
2013-05-18 22:34:00,52.2,46.2,30.26,NNE,18,0.0,0.0,80,0.00,,,0.00,Wunderground v.1.15,2013-05-19 02:34:00,
2013-05-18 22:39:00,52.0,46.0,30.26,NNE,18,0.0,0.0,80,0.00,,,0.00,Wunderground v.1.15,2013-05-19 02:39:00,
2013-05-18 22:44:00,51.9,46.3,30.26,NNE,18,0.0,0.0,81,0.00,,,0.00,Wunderground v.1.15,2013-05-19 02:44:00,
2013-05-18 22:49:00,51.4,45.8,30.26,NNE,18,0.0,0.0,81,0.00,,,0.00,Wunderground v.1.15,2013-05-19 02:49:00,
2013-05-18 22:55:00,51.1,46.1,30.26,NNE,18,0.0,0.0,83,0.00,,,0.00,Wunderground v.1.15,2013-05-19 02:55:00,
2013-05-18 23:00:00,51.0,45.7,30.26,NNE,18,0.0,0.0,82,0.00,,,0.00,Wunderground v.1.15,2013-05-19 03:00:00,
2013-05-18 23:05:00,50.7,45.7,30.26,NNE,18,0.0,0.0,83,0.00,,,0.00,Wunderground v.1.15,2013-05-19 03:05:00,
2013-05-18 23:10:00,50.7,46.0,30.27,NNE,18,0.0,0.0,84,0.00,,,0.00,Wunderground v.1.15,2013-05-19 03:10:00,
2013-05-18 23:15:00,50.5,46.2,30.27,NNE,18,0.0,0.0,85,0.00,,,0.00,Wunderground v.1.15,2013-05-19 03:15:00,
2013-05-18 23:20:00,50.4,46.1,30.27,NNE,18,0.0,0.0,85,0.00,,,0.00,Wunderground v.1.15,2013-05-19 03:20:00,
2013-05-18 23:25:00,50.2,46.2,30.27,NNE,18,0.0,0.0,86,0.00,,,0.00,Wunderground v.1.15,2013-05-19 03:25:00,
2013-05-18 23:30:00,50.1,46.1,30.27,NNE,18,0.0,0.0,86,0.00,,,0.00,Wunderground v.1.15,2013-05-19 03:30:00,
2013-05-18 23:35:00,49.8,46.1,30.27,NNE,18,0.0,0.0,87,0.00,,,0.00,Wunderground v.1.15,2013-05-19 03:35:00,
2013-05-18 23:41:00,49.6,46.2,30.27,NNE,18,0.0,0.0,88,0.00,,,0.00,Wunderground v.1.15,2013-05-19 03:41:00,
2013-05-18 23:46:00,49.5,46.1,30.27,NNE,18,0.0,0.0,88,0.00,,,0.00,Wunderground v.1.15,2013-05-19 03:46:00,
2013-05-18 23:51:00,49.4,46.0,30.27,NNE,18,0.0,0.0,88,0.00,,,0.00,Wunderground v.1.15,2013-05-19 03:51:00,
2013-05-18 23:58:00,48.9,45.5,30.28,NNE,18,0.0,0.0,88,0.00,,,0.00,Wunderground v.1.15,2013-05-19 03:58:00,